createdAt,value
2018-04-13T00:00:45.330Z,0.00
2018-04-13T00:01:45.330Z,0.00
2018-04-13T00:02:45.330Z,0.00
2018-04-13T00:03:45.336Z,0.00
2018-04-13T00:04:45.331Z,0.00
2018-04-13T00:05:45.331Z,0.00
2018-04-13T00:06:45.332Z,0.00
2018-04-13T00:07:45.329Z,0.00
2018-04-13T00:08:45.333Z,0.00
2018-04-13T00:09:45.328Z,0.00
2018-04-13T00:10:45.330Z,0.00
2018-04-13T00:11:45.330Z,0.00
2018-04-13T00:12:45.334Z,0.00
2018-04-13T00:13:45.343Z,0.00
2018-04-13T00:14:45.334Z,0.00
2018-04-13T00:15:45.329Z,0.00
2018-04-13T00:16:45.330Z,0.00
2018-04-13T00:17:45.332Z,0.00
2018-04-13T00:18:45.332Z,0.00
2018-04-13T00:19:45.332Z,0.00
2018-04-13T00:20:45.331Z,0.00
2018-04-13T00:21:45.330Z,0.00
2018-04-13T00:22:45.332Z,0.00
2018-04-13T00:23:45.332Z,0.00
2018-04-13T00:24:45.327Z,0.00
2018-04-13T00:25:45.333Z,0.00
2018-04-13T00:26:45.333Z,0.00
2018-04-13T00:27:45.340Z,0.00
2018-04-13T00:28:45.331Z,0.00
2018-04-13T00:29:45.332Z,0.00
2018-04-13T00:30:45.330Z,0.00
2018-04-13T00:31:45.335Z,0.00
2018-04-13T00:32:45.333Z,0.00
2018-04-13T00:33:45.333Z,0.00
2018-04-13T00:34:45.339Z,0.00
2018-04-13T00:35:45.335Z,0.00
2018-04-13T00:36:45.332Z,0.00
2018-04-13T00:37:45.334Z,0.00
2018-04-13T00:38:45.338Z,0.00
2018-04-13T00:39:45.337Z,0.00
2018-04-13T00:40:45.330Z,0.00
2018-04-13T00:41:45.336Z,0.00
2018-04-13T00:42:45.336Z,0.00
2018-04-13T00:43:45.342Z,0.00
2018-04-13T00:44:45.332Z,0.00
2018-04-13T00:45:45.335Z,0.00
2018-04-13T00:46:45.335Z,0.00
2018-04-13T00:47:45.335Z,0.00
2018-04-13T00:48:45.333Z,0.00
2018-04-13T00:49:45.336Z,0.00
2018-04-13T00:50:45.337Z,0.00
2018-04-13T00:51:45.346Z,0.00
2018-04-13T00:52:45.333Z,0.00
2018-04-13T00:53:45.332Z,0.00
2018-04-13T00:54:45.334Z,0.00
2018-04-13T00:55:45.332Z,0.00
2018-04-13T00:56:45.333Z,0.00
2018-04-13T00:57:45.333Z,0.00
2018-04-13T00:58:45.337Z,0.00
2018-04-13T00:59:45.335Z,0.00
2018-04-13T01:00:45.333Z,0.00
2018-04-13T01:01:45.328Z,0.00
2018-04-13T01:02:45.333Z,0.00
2018-04-13T01:03:45.335Z,0.00
2018-04-13T01:04:45.336Z,0.00
2018-04-13T01:05:45.333Z,0.00
2018-04-13T01:06:45.338Z,0.00
2018-04-13T01:07:45.336Z,0.00
2018-04-13T01:08:45.382Z,0.00
2018-04-13T01:09:45.332Z,0.00
2018-04-13T01:10:45.328Z,0.00
2018-04-13T01:11:45.335Z,0.00
2018-04-13T01:12:45.330Z,0.00
2018-04-13T01:13:45.334Z,0.00
2018-04-13T01:14:45.333Z,0.00
2018-04-13T01:15:45.329Z,0.00
2018-04-13T01:16:45.333Z,0.00
2018-04-13T01:17:45.335Z,0.00
2018-04-13T01:18:45.330Z,0.00
2018-04-13T01:19:45.333Z,0.00
2018-04-13T01:20:45.332Z,0.00
2018-04-13T01:21:45.332Z,0.00
2018-04-13T01:22:45.331Z,0.00
2018-04-13T01:23:45.330Z,0.00
2018-04-13T01:24:45.331Z,0.00
2018-04-13T01:25:45.327Z,0.00
2018-04-13T01:26:45.330Z,0.00
2018-04-13T01:27:45.333Z,0.00
2018-04-13T01:28:45.331Z,0.00
2018-04-13T01:29:45.330Z,0.00
2018-04-13T01:30:45.332Z,0.00
2018-04-13T01:31:45.336Z,0.00
2018-04-13T01:32:45.332Z,0.00
2018-04-13T01:33:45.331Z,0.00
2018-04-13T01:34:45.333Z,0.00
2018-04-13T01:35:45.331Z,0.00
2018-04-13T01:36:45.331Z,0.00
2018-04-13T01:37:45.329Z,0.00
2018-04-13T01:38:45.330Z,0.00
2018-04-13T01:39:45.329Z,0.00
2018-04-13T01:40:45.329Z,0.00
2018-04-13T01:41:45.328Z,0.00
2018-04-13T01:42:45.330Z,0.00
2018-04-13T01:43:45.329Z,0.00
2018-04-13T01:44:45.328Z,0.00
2018-04-13T01:45:45.355Z,0.00
2018-04-13T01:46:45.331Z,0.00
2018-04-13T01:47:45.330Z,0.00
2018-04-13T01:48:45.328Z,0.00
2018-04-13T01:49:45.331Z,0.00
2018-04-13T01:50:45.327Z,0.00
2018-04-13T01:51:45.330Z,0.00
2018-04-13T01:52:45.329Z,0.00
2018-04-13T01:53:45.325Z,0.00
2018-04-13T01:54:45.327Z,0.00
2018-04-13T01:55:45.326Z,0.00
2018-04-13T01:56:45.326Z,0.00
2018-04-13T01:57:45.327Z,0.00
2018-04-13T01:58:45.327Z,0.00
2018-04-13T01:59:45.332Z,0.00
2018-04-13T02:00:45.331Z,0.00
2018-04-13T02:01:45.326Z,0.00
2018-04-13T02:02:45.329Z,0.00
2018-04-13T02:03:45.328Z,0.00
2018-04-13T02:04:45.333Z,0.00
2018-04-13T02:05:45.325Z,0.00
2018-04-13T02:06:45.327Z,0.00
2018-04-13T02:07:45.326Z,0.00
2018-04-13T02:08:45.326Z,0.00
2018-04-13T02:09:45.324Z,0.00
2018-04-13T02:10:45.326Z,0.00
2018-04-13T02:11:45.326Z,0.00
2018-04-13T02:12:45.325Z,0.00
2018-04-13T02:13:45.325Z,0.00
2018-04-13T02:14:45.326Z,0.00
2018-04-13T02:15:45.326Z,0.00
2018-04-13T02:16:45.324Z,0.00
2018-04-13T02:17:45.326Z,0.00
2018-04-13T02:18:45.326Z,0.00
2018-04-13T02:19:45.328Z,0.00
2018-04-13T02:20:45.328Z,0.00
2018-04-13T02:21:45.326Z,0.00
2018-04-13T02:22:45.326Z,0.00
2018-04-13T02:23:45.326Z,0.00
2018-04-13T02:24:45.323Z,0.00
2018-04-13T02:25:45.326Z,0.00
2018-04-13T02:26:45.323Z,0.00
2018-04-13T02:27:45.324Z,0.00
2018-04-13T02:28:45.322Z,0.00
2018-04-13T02:29:45.324Z,0.00
2018-04-13T02:30:45.324Z,0.00
2018-04-13T02:31:45.323Z,0.00
2018-04-13T02:32:45.325Z,0.00
2018-04-13T02:33:45.329Z,0.00
2018-04-13T02:34:45.325Z,0.00
2018-04-13T02:35:45.326Z,0.00
2018-04-13T02:36:45.328Z,0.00
2018-04-13T02:37:45.323Z,0.00
2018-04-13T02:38:45.320Z,0.00
2018-04-13T02:39:45.321Z,0.00
2018-04-13T02:40:45.327Z,0.00
2018-04-13T02:41:45.322Z,0.00
2018-04-13T02:42:45.323Z,0.00
2018-04-13T02:43:45.321Z,0.00
2018-04-13T02:44:45.323Z,0.00
2018-04-13T02:45:45.322Z,0.00
2018-04-13T02:46:45.322Z,0.00
2018-04-13T02:47:45.324Z,0.00
2018-04-13T02:48:45.321Z,0.00
2018-04-13T02:49:45.326Z,0.00
2018-04-13T02:50:45.322Z,0.00
2018-04-13T02:51:45.326Z,0.00
2018-04-13T02:52:45.323Z,0.00
2018-04-13T02:53:45.321Z,0.00
2018-04-13T02:54:45.322Z,0.00
2018-04-13T02:55:45.317Z,0.00
2018-04-13T02:56:45.321Z,0.00
2018-04-13T02:57:45.320Z,0.00
2018-04-13T02:58:45.319Z,0.00
2018-04-13T02:59:45.322Z,0.00
2018-04-13T03:00:45.320Z,0.00
2018-04-13T03:01:45.318Z,0.00
2018-04-13T03:02:45.320Z,0.00
2018-04-13T03:03:45.319Z,0.00
2018-04-13T03:04:45.319Z,0.00
2018-04-13T03:05:45.317Z,0.00
2018-04-13T03:06:45.323Z,0.00
2018-04-13T03:07:45.319Z,0.00
2018-04-13T03:08:45.322Z,0.00
2018-04-13T03:09:45.320Z,0.00
2018-04-13T03:10:45.316Z,0.00
2018-04-13T03:11:45.319Z,0.00
2018-04-13T03:12:45.318Z,0.00
2018-04-13T03:13:45.316Z,0.00
2018-04-13T03:14:45.322Z,0.00
2018-04-13T03:15:45.320Z,0.00
2018-04-13T03:16:45.317Z,0.00
2018-04-13T03:17:45.324Z,0.00
2018-04-13T03:18:45.320Z,0.00
2018-04-13T03:19:45.323Z,0.00
2018-04-13T03:20:45.318Z,0.00
2018-04-13T03:21:45.322Z,0.00
2018-04-13T03:22:45.319Z,0.00
2018-04-13T03:23:45.319Z,0.00
2018-04-13T03:24:45.318Z,0.00
2018-04-13T03:25:45.317Z,0.00
2018-04-13T03:26:45.317Z,0.00
2018-04-13T03:27:45.320Z,0.00
2018-04-13T03:28:45.314Z,0.00
2018-04-13T03:29:45.315Z,0.00
2018-04-13T03:30:45.319Z,0.00
2018-04-13T03:31:45.314Z,0.00
2018-04-13T03:32:45.319Z,0.00
2018-04-13T03:33:45.312Z,0.00
2018-04-13T03:34:45.343Z,0.00
2018-04-13T03:35:45.312Z,0.00
2018-04-13T03:36:45.313Z,0.00
2018-04-13T03:37:45.311Z,0.00
2018-04-13T03:38:45.314Z,0.00
2018-04-13T03:39:45.310Z,0.00
2018-04-13T03:40:45.311Z,0.00
2018-04-13T03:41:45.310Z,0.00
2018-04-13T03:42:45.310Z,0.00
2018-04-13T03:43:45.313Z,0.00
2018-04-13T03:44:45.309Z,0.00
2018-04-13T03:45:45.312Z,0.00
2018-04-13T03:46:45.309Z,4.00
2018-04-13T03:47:45.309Z,4.00
2018-04-13T03:48:45.309Z,0.00
2018-04-13T03:49:45.316Z,0.00
2018-04-13T03:50:45.311Z,4.00
2018-04-13T03:51:45.309Z,4.00
2018-04-13T03:52:45.309Z,0.00
2018-04-13T03:53:45.304Z,4.00
2018-04-13T03:54:45.309Z,4.00
2018-04-13T03:55:45.308Z,4.00
2018-04-13T03:56:45.308Z,4.00
2018-04-13T03:57:45.307Z,8.00
2018-04-13T03:58:45.309Z,8.00
2018-04-13T03:59:45.307Z,8.00
2018-04-13T04:00:45.303Z,12.00
2018-04-13T04:01:45.304Z,12.00
2018-04-13T04:02:45.306Z,12.00
2018-04-13T04:03:45.307Z,12.00
2018-04-13T04:04:45.308Z,12.00
2018-04-13T04:05:45.308Z,16.00
2018-04-13T04:06:45.305Z,12.00
2018-04-13T04:07:45.303Z,12.00
2018-04-13T04:08:45.306Z,16.00
2018-04-13T04:09:45.300Z,20.00
2018-04-13T04:10:45.303Z,24.00
2018-04-13T04:11:45.304Z,28.00
2018-04-13T04:12:45.305Z,32.00
2018-04-13T04:13:45.304Z,36.00
2018-04-13T04:14:45.310Z,40.00
2018-04-13T04:15:45.303Z,48.00
2018-04-13T04:16:45.303Z,52.00
2018-04-13T04:17:45.305Z,56.00
2018-04-13T04:18:45.302Z,60.00
2018-04-13T04:19:45.300Z,60.00
2018-04-13T04:20:45.303Z,68.00
2018-04-13T04:21:45.325Z,72.00
2018-04-13T04:22:45.302Z,76.00
2018-04-13T04:23:45.300Z,84.00
2018-04-13T04:24:45.298Z,92.00
2018-04-13T04:25:45.303Z,108.00
2018-04-13T04:26:45.303Z,128.00
2018-04-13T04:27:45.301Z,144.00
2018-04-13T04:28:45.312Z,156.00
2018-04-13T04:29:45.307Z,176.00
2018-04-13T04:30:45.302Z,212.00
2018-04-13T04:31:45.303Z,252.00
2018-04-13T04:32:45.302Z,284.00
2018-04-13T04:33:45.302Z,328.00
2018-04-13T04:34:45.301Z,372.00
2018-04-13T04:35:45.303Z,408.00
2018-04-13T04:36:45.308Z,444.00
2018-04-13T04:37:45.305Z,488.00
2018-04-13T04:38:45.302Z,520.00
2018-04-13T04:39:45.308Z,560.00
2018-04-13T04:40:45.301Z,636.00
2018-04-13T04:41:45.307Z,724.00
2018-04-13T04:42:45.302Z,764.00
2018-04-13T04:43:45.304Z,800.00
2018-04-13T04:44:45.299Z,872.00
2018-04-13T04:45:45.308Z,956.00
2018-04-13T04:46:45.303Z,1056.00
2018-04-13T04:47:45.305Z,1164.00
2018-04-13T04:48:45.301Z,1276.00
2018-04-13T04:49:45.312Z,1380.00
2018-04-13T04:50:45.302Z,1388.00
2018-04-13T04:51:45.304Z,1400.00
2018-04-13T04:52:45.304Z,1404.00
2018-04-13T04:53:45.303Z,1392.00
2018-04-13T04:54:45.315Z,1404.00
2018-04-13T04:55:45.301Z,1460.00
2018-04-13T04:56:45.303Z,1560.00
2018-04-13T04:57:45.305Z,1684.00
2018-04-13T04:58:45.306Z,1796.00
2018-04-13T04:59:45.307Z,1848.00
2018-04-13T05:00:45.304Z,1840.00
2018-04-13T05:01:45.306Z,1824.00
2018-04-13T05:02:45.311Z,1804.00
2018-04-13T05:03:45.307Z,1800.00
2018-04-13T05:04:45.308Z,1820.00
2018-04-13T05:05:45.306Z,1856.00
2018-04-13T05:06:45.313Z,1860.00
2018-04-13T05:07:45.307Z,1848.00
2018-04-13T05:08:45.306Z,1832.00
2018-04-13T05:09:45.307Z,1872.00
2018-04-13T05:10:45.310Z,1892.00
2018-04-13T05:11:45.310Z,1860.00
2018-04-13T05:12:45.317Z,1828.00
2018-04-13T05:13:45.305Z,1812.00
2018-04-13T05:14:45.307Z,1872.00
2018-04-13T05:15:45.310Z,1964.00
2018-04-13T05:16:45.308Z,2100.00
2018-04-13T05:17:45.308Z,2236.00
2018-04-13T05:18:45.310Z,2276.00
2018-04-13T05:19:45.312Z,2288.00
2018-04-13T05:20:45.312Z,2324.00
2018-04-13T05:21:45.310Z,2284.00
2018-04-13T05:22:45.312Z,2252.00
2018-04-13T05:23:45.311Z,2192.00
2018-04-13T05:24:45.312Z,2112.00
2018-04-13T05:25:45.312Z,2024.00
2018-04-13T05:26:45.313Z,1888.00
2018-04-13T05:27:45.315Z,1776.00
2018-04-13T05:28:45.313Z,1688.00
2018-04-13T05:29:45.315Z,1608.00
2018-04-13T05:30:45.312Z,1492.00
2018-04-13T05:31:45.315Z,1364.00
2018-04-13T05:32:45.315Z,1192.00
2018-04-13T05:33:45.315Z,1048.00
2018-04-13T05:34:45.319Z,956.00
2018-04-13T05:35:45.319Z,924.00
2018-04-13T05:36:45.317Z,960.00
2018-04-13T05:37:45.324Z,1040.00
2018-04-13T05:38:45.318Z,1148.00
2018-04-13T05:39:45.317Z,1236.00
2018-04-13T05:40:45.316Z,1272.00
2018-04-13T05:41:45.317Z,1320.00
2018-04-13T05:42:45.319Z,1380.00
2018-04-13T05:43:45.319Z,1456.00
2018-04-13T05:44:45.314Z,1508.00
2018-04-13T05:45:45.327Z,1516.00
2018-04-13T05:46:45.319Z,1408.00
2018-04-13T05:47:45.319Z,1276.00
2018-04-13T05:48:45.319Z,1172.00
2018-04-13T05:49:45.318Z,1112.00
2018-04-13T05:50:45.319Z,1092.00
2018-04-13T05:51:45.318Z,1104.00
2018-04-13T05:52:45.324Z,1144.00
2018-04-13T05:53:45.318Z,1248.00
2018-04-13T05:54:45.323Z,1360.00
2018-04-13T05:55:45.321Z,1472.00
2018-04-13T05:56:45.320Z,1572.00
2018-04-13T05:57:45.319Z,1636.00
2018-04-13T05:58:45.320Z,1728.00
2018-04-13T05:59:45.318Z,1896.00
2018-04-13T06:00:45.321Z,2072.00
2018-04-13T06:01:45.325Z,2248.00
2018-04-13T06:02:45.323Z,2384.00
2018-04-13T06:03:45.323Z,2344.00
2018-04-13T06:04:45.322Z,2160.00
2018-04-13T06:05:45.322Z,2028.00
2018-04-13T06:06:45.326Z,2016.00
2018-04-13T06:07:45.322Z,2144.00
2018-04-13T06:08:45.327Z,2272.00
2018-04-13T06:09:45.323Z,2356.00
2018-04-13T06:10:45.326Z,2356.00
2018-04-13T06:11:45.328Z,2256.00
2018-04-13T06:12:45.325Z,2152.00
2018-04-13T06:13:45.324Z,2060.00
2018-04-13T06:14:45.322Z,2048.00
2018-04-13T06:15:45.325Z,2128.00
2018-04-13T06:16:45.325Z,2212.00
2018-04-13T06:17:45.326Z,2316.00
2018-04-13T06:18:45.326Z,2528.00
2018-04-13T06:19:45.328Z,2808.00
2018-04-13T06:20:45.338Z,2920.00
2018-04-13T06:21:45.326Z,2848.00
2018-04-13T06:22:45.329Z,2672.00
2018-04-13T06:23:45.331Z,2544.00
2018-04-13T06:24:45.343Z,2500.00
2018-04-13T06:25:45.330Z,2528.00
2018-04-13T06:26:45.334Z,2504.00
2018-04-13T06:27:45.333Z,2476.00
2018-04-13T06:28:45.334Z,2472.00
2018-04-13T06:29:45.336Z,2424.00
2018-04-13T06:30:45.333Z,2216.00
2018-04-13T06:31:45.332Z,2016.00
2018-04-13T06:32:45.332Z,1824.00
2018-04-13T06:33:45.337Z,1740.00
2018-04-13T06:34:45.338Z,1712.00
2018-04-13T06:35:45.338Z,1588.00
2018-04-13T06:36:45.341Z,1340.00
2018-04-13T06:37:45.337Z,984.00
2018-04-13T06:38:45.343Z,740.00
2018-04-13T06:39:45.339Z,644.00
2018-04-13T06:40:45.336Z,604.00
2018-04-13T06:41:45.345Z,588.00
2018-04-13T06:42:45.342Z,588.00
2018-04-13T06:43:45.418Z,632.00
2018-04-13T06:44:45.341Z,720.00
2018-04-13T06:45:45.341Z,792.00
2018-04-13T06:46:45.343Z,856.00
2018-04-13T06:47:45.346Z,884.00
2018-04-13T06:48:45.353Z,908.00
2018-04-13T06:49:45.341Z,812.00
2018-04-13T06:50:45.344Z,716.00
2018-04-13T06:51:45.345Z,684.00
2018-04-13T06:52:45.343Z,652.00
2018-04-13T06:53:45.342Z,648.00
2018-04-13T06:54:45.345Z,664.00
2018-04-13T06:55:45.345Z,692.00
2018-04-13T06:56:45.368Z,712.00
2018-04-13T06:57:45.351Z,724.00
2018-04-13T06:58:45.343Z,708.00
2018-04-13T06:59:45.344Z,704.00
2018-04-13T07:00:45.343Z,708.00
2018-04-13T07:01:45.344Z,724.00
2018-04-13T07:02:45.353Z,692.00
2018-04-13T07:03:45.340Z,676.00
2018-04-13T07:04:45.343Z,700.00
2018-04-13T07:05:45.342Z,756.00
2018-04-13T07:06:45.342Z,848.00
2018-04-13T07:07:46.250Z,928.00
2018-04-13T07:08:45.348Z,980.00
2018-04-13T07:09:45.340Z,1016.00
2018-04-13T07:10:45.345Z,1008.00
2018-04-13T07:11:45.343Z,1020.00
2018-04-13T07:12:45.339Z,1104.00
2018-04-13T07:13:45.375Z,1256.00
2018-04-13T07:14:45.343Z,1436.00
2018-04-13T07:15:45.344Z,1572.00
2018-04-13T07:16:45.337Z,1592.00
2018-04-13T07:17:45.337Z,1628.00
2018-04-13T07:18:45.336Z,1728.00
2018-04-13T07:19:45.336Z,1884.00
2018-04-13T07:20:45.336Z,2000.00
2018-04-13T07:21:45.337Z,2060.00
2018-04-13T07:22:45.339Z,2164.00
2018-04-13T07:23:45.340Z,2260.00
2018-04-13T07:24:45.334Z,2404.00
2018-04-13T07:25:45.334Z,2652.00
2018-04-13T07:26:45.344Z,3032.00
2018-04-13T07:27:45.335Z,3144.00
2018-04-13T07:28:45.332Z,2916.00
2018-04-13T07:29:45.332Z,2688.00
2018-04-13T07:30:45.333Z,2472.00
2018-04-13T07:31:45.333Z,2288.00
2018-04-13T07:32:45.329Z,2112.00
2018-04-13T07:33:45.332Z,1956.00
2018-04-13T07:34:45.335Z,1900.00
2018-04-13T07:35:45.335Z,2100.00
2018-04-13T07:36:45.331Z,2284.00
2018-04-13T07:37:45.331Z,2672.00
2018-04-13T07:38:45.332Z,3156.00
2018-04-13T07:39:45.334Z,3444.00
2018-04-13T07:40:45.331Z,3312.00
2018-04-13T07:41:45.336Z,2908.00
2018-04-13T07:42:45.333Z,2652.00
2018-04-13T07:43:45.612Z,2224.00
2018-04-13T07:44:45.336Z,1828.00
2018-04-13T07:45:45.435Z,1496.00
2018-04-13T07:46:45.336Z,1264.00
2018-04-13T07:47:45.330Z,1156.00
2018-04-13T07:48:45.332Z,1092.00
2018-04-13T07:49:45.333Z,1160.00
2018-04-13T07:50:45.336Z,1368.00
2018-04-13T07:51:45.338Z,1628.00
2018-04-13T07:52:45.334Z,1884.00
2018-04-13T07:53:45.341Z,1812.00
2018-04-13T07:54:45.335Z,1732.00
2018-04-13T07:55:45.336Z,1620.00
2018-04-13T07:56:45.332Z,1500.00
2018-04-13T07:57:45.707Z,1344.00
2018-04-13T07:58:45.340Z,1200.00
2018-04-13T07:59:45.541Z,1076.00
2018-04-13T08:00:45.820Z,956.00
2018-04-13T08:01:45.540Z,828.00
2018-04-13T08:02:45.337Z,712.00
2018-04-13T08:03:45.337Z,596.00
2018-04-13T08:04:45.337Z,512.00
2018-04-13T08:05:45.343Z,540.00
2018-04-13T08:06:45.338Z,632.00
2018-04-13T08:07:45.340Z,692.00
2018-04-13T08:08:45.338Z,708.00
2018-04-13T08:09:45.340Z,736.00
2018-04-13T08:10:45.339Z,816.00
2018-04-13T08:11:45.340Z,896.00
2018-04-13T08:12:45.341Z,972.00
2018-04-13T08:13:45.342Z,1036.00
2018-04-13T08:14:45.341Z,1068.00
2018-04-13T08:15:45.341Z,1320.00
2018-04-13T08:16:45.341Z,1704.00
2018-04-13T08:17:45.342Z,2328.00
2018-04-13T08:18:45.342Z,2588.00
2018-04-13T08:19:45.345Z,2824.00
2018-04-13T08:20:45.375Z,2948.00
2018-04-13T08:21:45.344Z,2860.00
2018-04-13T08:22:45.367Z,2952.00
2018-04-13T08:23:45.344Z,3156.00
2018-04-13T08:24:45.347Z,3380.00
2018-04-13T08:25:45.342Z,3696.00
2018-04-13T08:26:45.349Z,4604.00
2018-04-13T08:27:45.347Z,5072.00
2018-04-13T08:28:45.346Z,5072.00
2018-04-13T08:29:45.359Z,4384.00
2018-04-13T08:30:45.348Z,3612.00
2018-04-13T08:31:45.346Z,3056.00
2018-04-13T08:32:45.369Z,2696.00
2018-04-13T08:33:45.410Z,2568.00
2018-04-13T08:34:45.352Z,2632.00
2018-04-13T08:35:45.371Z,2588.00
2018-04-13T08:36:45.392Z,2824.00
2018-04-13T08:37:45.350Z,2644.00
2018-04-13T08:38:45.364Z,2864.00
2018-04-13T08:39:45.353Z,2896.00
2018-04-13T08:40:45.358Z,2940.00
2018-04-13T08:41:45.351Z,3180.00
2018-04-13T08:42:45.371Z,3560.00
2018-04-13T08:43:45.354Z,3704.00
2018-04-13T08:44:45.356Z,3608.00
2018-04-13T08:45:45.428Z,3528.00
2018-04-13T08:46:45.354Z,3488.00
2018-04-13T08:47:45.415Z,3488.00
2018-04-13T08:48:45.488Z,3592.00
2018-04-13T08:49:45.355Z,3876.00
2018-04-13T08:50:45.358Z,4456.00
2018-04-13T08:51:45.360Z,5324.00
2018-04-13T08:52:45.355Z,5652.00
2018-04-13T08:53:45.352Z,5140.00
2018-04-13T08:54:45.355Z,4464.00
2018-04-13T08:55:45.354Z,4112.00
2018-04-13T08:56:45.368Z,3864.00
2018-04-13T08:57:45.402Z,3572.00
2018-04-13T08:58:45.355Z,3284.00
2018-04-13T08:59:46.282Z,3204.00
2018-04-13T09:00:45.355Z,3052.00
2018-04-13T09:01:45.362Z,3084.00
2018-04-13T09:02:45.356Z,3204.00
2018-04-13T09:03:45.351Z,3420.00
2018-04-13T09:04:45.356Z,3900.00
2018-04-13T09:05:45.360Z,4872.00
2018-04-13T09:06:45.360Z,6088.00
2018-04-13T09:07:45.366Z,6012.00
2018-04-13T09:08:45.361Z,5388.00
2018-04-13T09:09:45.359Z,5068.00
2018-04-13T09:10:45.360Z,5104.00
2018-04-13T09:11:45.360Z,4936.00
2018-04-13T09:12:45.366Z,3976.00
2018-04-13T09:13:45.359Z,2820.00
2018-04-13T09:14:45.361Z,2304.00
2018-04-13T09:15:45.361Z,2260.00
2018-04-13T09:16:45.364Z,2444.00
2018-04-13T09:17:45.390Z,2716.00
2018-04-13T09:18:45.371Z,3144.00
2018-04-13T09:19:45.360Z,3880.00
2018-04-13T09:20:45.373Z,4608.00
2018-04-13T09:21:45.408Z,4816.00
2018-04-13T09:22:45.367Z,5144.00
2018-04-13T09:23:45.388Z,5492.00
2018-04-13T09:24:45.360Z,5716.00
2018-04-13T09:25:45.361Z,6764.00
2018-04-13T09:26:45.366Z,8560.00
2018-04-13T09:27:45.361Z,9528.00
2018-04-13T09:28:45.362Z,10648.00
2018-04-13T09:29:45.360Z,11224.00
2018-04-13T09:30:45.362Z,10692.00
2018-04-13T09:31:45.362Z,9824.00
2018-04-13T09:32:45.367Z,9124.00
2018-04-13T09:33:45.361Z,8428.00
2018-04-13T09:34:45.360Z,8336.00
2018-04-13T09:35:45.391Z,8372.00
2018-04-13T09:36:45.388Z,8148.00
2018-04-13T09:37:45.363Z,7876.00
2018-04-13T09:38:45.359Z,7860.00
2018-04-13T09:39:45.364Z,8068.00
2018-04-13T09:40:45.363Z,8368.00
2018-04-13T09:41:45.366Z,8632.00
2018-04-13T09:42:45.365Z,8644.00
2018-04-13T09:43:45.363Z,8036.00
2018-04-13T09:44:45.370Z,7524.00
2018-04-13T09:45:45.367Z,7408.00
2018-04-13T09:46:45.370Z,7556.00
2018-04-13T09:47:45.366Z,7816.00
2018-04-13T09:48:45.372Z,7840.00
2018-04-13T09:49:45.367Z,7616.00
2018-04-13T09:50:45.372Z,7296.00
2018-04-13T09:51:45.370Z,6880.00
2018-04-13T09:52:45.369Z,6664.00
2018-04-13T09:53:45.373Z,6800.00
2018-04-13T09:54:45.371Z,6936.00
2018-04-13T09:55:45.371Z,7228.00
2018-04-13T09:56:45.372Z,7716.00
2018-04-13T09:57:45.437Z,7796.00
2018-04-13T09:58:45.374Z,6956.00
2018-04-13T09:59:45.375Z,5888.00
2018-04-13T10:00:45.379Z,5440.00
2018-04-13T10:01:45.384Z,6080.00
2018-04-13T10:02:45.380Z,6592.00
2018-04-13T10:03:45.384Z,6940.00
2018-04-13T10:04:45.384Z,7152.00
2018-04-13T10:05:45.379Z,7272.00
2018-04-13T10:06:45.388Z,7056.00
2018-04-13T10:07:45.385Z,6608.00
2018-04-13T10:08:45.384Z,5672.00
2018-04-13T10:09:45.386Z,4604.00
2018-04-13T10:10:45.388Z,4284.00
2018-04-13T10:11:45.392Z,4624.00
2018-04-13T10:12:45.385Z,5240.00
2018-04-13T10:13:45.411Z,5604.00
2018-04-13T10:14:45.400Z,5480.00
2018-04-13T10:15:45.403Z,5088.00
2018-04-13T10:16:45.392Z,4692.00
2018-04-13T10:17:45.391Z,4512.00
2018-04-13T10:18:45.393Z,4776.00
2018-04-13T10:19:45.391Z,5148.00
2018-04-13T10:20:45.393Z,5456.00
2018-04-13T10:21:45.462Z,5704.00
2018-04-13T10:22:45.513Z,6116.00
2018-04-13T10:23:45.406Z,5948.00
2018-04-13T10:24:45.413Z,5364.00
2018-04-13T10:25:45.399Z,4800.00
2018-04-13T10:26:45.401Z,4016.00
2018-04-13T10:27:45.404Z,3492.00
2018-04-13T10:28:45.402Z,3164.00
2018-04-13T10:29:45.403Z,2852.00
2018-04-13T10:30:45.408Z,2788.00
2018-04-13T10:31:45.405Z,3164.00
2018-04-13T10:32:45.406Z,3948.00
2018-04-13T10:33:45.406Z,5180.00
2018-04-13T10:34:45.426Z,6188.00
2018-04-13T10:35:45.414Z,6788.00
2018-04-13T10:36:45.410Z,6728.00
2018-04-13T10:37:45.410Z,6816.00
2018-04-13T10:38:45.431Z,7412.00
2018-04-13T10:39:45.491Z,8264.00
2018-04-13T10:40:45.494Z,9236.00
2018-04-13T10:41:45.590Z,9588.00
2018-04-13T10:42:45.524Z,9068.00
2018-04-13T10:43:45.529Z,7964.00
2018-04-13T10:44:45.432Z,6880.00
2018-04-13T10:45:45.417Z,6192.00
2018-04-13T10:46:45.425Z,5892.00
2018-04-13T10:47:45.425Z,5708.00
2018-04-13T10:48:45.418Z,5304.00
2018-04-13T10:49:45.421Z,5264.00
2018-04-13T10:50:45.419Z,5504.00
2018-04-13T10:51:45.424Z,5664.00
2018-04-13T10:52:45.423Z,5820.00
2018-04-13T10:53:45.425Z,5904.00
2018-04-13T10:54:45.427Z,5812.00
2018-04-13T10:55:45.427Z,5604.00
2018-04-13T10:56:45.432Z,5716.00
2018-04-13T10:57:45.463Z,6216.00
2018-04-13T10:58:45.521Z,6988.00
2018-04-13T10:59:45.440Z,7564.00
2018-04-13T11:00:45.439Z,7772.00
2018-04-13T11:01:45.435Z,7708.00
2018-04-13T11:02:45.441Z,7472.00
2018-04-13T11:03:45.458Z,7380.00
2018-04-13T11:04:45.439Z,7272.00
2018-04-13T11:05:45.444Z,7076.00
2018-04-13T11:06:45.444Z,6488.00
2018-04-13T11:07:45.622Z,6028.00
2018-04-13T11:08:45.452Z,5884.00
2018-04-13T11:09:45.454Z,5600.00
2018-04-13T11:10:45.447Z,5304.00
2018-04-13T11:11:45.448Z,4784.00
2018-04-13T11:12:45.453Z,4656.00
2018-04-13T11:13:45.451Z,4964.00
2018-04-13T11:14:45.451Z,5308.00
2018-04-13T11:15:45.453Z,5324.00
2018-04-13T11:16:45.464Z,5216.00
2018-04-13T11:17:45.456Z,4928.00
2018-04-13T11:18:45.464Z,4708.00
2018-04-13T11:19:45.460Z,4632.00
2018-04-13T11:20:45.610Z,4832.00
2018-04-13T11:21:45.458Z,5644.00
2018-04-13T11:22:45.462Z,5948.00
2018-04-13T11:23:45.463Z,6176.00
2018-04-13T11:24:45.455Z,6316.00
2018-04-13T11:25:45.458Z,6352.00
2018-04-13T11:26:45.473Z,6492.00
2018-04-13T11:27:45.461Z,6728.00
2018-04-13T11:28:45.469Z,7056.00
2018-04-13T11:29:45.465Z,7336.00
2018-04-13T11:30:45.465Z,7576.00
2018-04-13T11:31:45.470Z,7812.00
2018-04-13T11:32:45.466Z,8092.00
2018-04-13T11:33:45.465Z,8332.00
2018-04-13T11:34:45.469Z,8532.00
2018-04-13T11:35:45.471Z,8584.00
2018-04-13T11:36:45.469Z,8604.00
2018-04-13T11:37:45.472Z,8776.00
2018-04-13T11:38:45.472Z,8884.00
2018-04-13T11:39:45.475Z,8972.00
2018-04-13T11:40:45.473Z,8964.00
2018-04-13T11:41:45.479Z,8972.00
2018-04-13T11:42:45.475Z,8996.00
2018-04-13T11:43:45.474Z,9072.00
2018-04-13T11:44:45.479Z,9032.00
2018-04-13T11:45:45.477Z,8960.00
2018-04-13T11:46:45.478Z,8876.00
2018-04-13T11:47:45.481Z,8988.00
2018-04-13T11:48:45.479Z,8988.00
2018-04-13T11:49:45.478Z,8708.00
2018-04-13T11:50:45.488Z,8504.00
2018-04-13T11:51:45.483Z,8484.00
2018-04-13T11:52:45.490Z,8440.00
2018-04-13T11:53:45.480Z,8380.00
2018-04-13T11:54:45.483Z,8392.00
2018-04-13T11:55:45.485Z,8552.00
2018-04-13T11:56:45.485Z,8760.00
2018-04-13T11:57:45.490Z,8836.00
2018-04-13T11:58:45.491Z,8800.00
2018-04-13T11:59:45.488Z,8872.00
2018-04-13T12:00:45.491Z,9208.00
2018-04-13T12:01:45.502Z,9612.00
2018-04-13T12:02:45.495Z,9944.00
2018-04-13T12:03:45.496Z,10024.00
2018-04-13T12:04:45.500Z,10040.00
2018-04-13T12:05:45.504Z,10028.00
2018-04-13T12:06:45.502Z,10060.00
2018-04-13T12:07:45.504Z,10080.00
2018-04-13T12:08:45.501Z,9996.00
2018-04-13T12:09:45.512Z,9836.00
2018-04-13T12:10:45.509Z,9800.00
2018-04-13T12:11:45.510Z,9636.00
2018-04-13T12:12:45.516Z,9236.00
2018-04-13T12:13:45.513Z,9380.00
2018-04-13T12:14:45.515Z,9608.00
2018-04-13T12:15:45.554Z,9764.00
2018-04-13T12:16:45.520Z,9772.00
2018-04-13T12:17:45.522Z,9516.00
2018-04-13T12:18:45.524Z,9300.00
2018-04-13T12:19:45.529Z,9300.00
2018-04-13T12:20:45.524Z,9264.00
2018-04-13T12:21:45.528Z,9180.00
2018-04-13T12:22:45.532Z,9140.00
2018-04-13T12:23:45.534Z,9264.00
2018-04-13T12:24:45.540Z,9180.00
2018-04-13T12:25:45.536Z,9064.00
2018-04-13T12:26:45.538Z,8960.00
2018-04-13T12:27:45.570Z,8816.00
2018-04-13T12:28:45.542Z,8572.00
2018-04-13T12:29:45.546Z,8228.00
2018-04-13T12:30:45.547Z,7792.00